sensor_id;sensor_type;location;lat;lon;timestamp;temperature;humidity
69595;DHT22;56800;52.142;5.364;2023-06-14T00:00:14;20.90;38.60
69595;DHT22;56800;52.142;5.364;2023-06-14T00:02:42;20.80;38.80
69595;DHT22;56800;52.142;5.364;2023-06-14T00:05:09;20.80;38.90
69595;DHT22;56800;52.142;5.364;2023-06-14T00:07:37;20.80;38.90
69595;DHT22;56800;52.142;5.364;2023-06-14T00:10:05;20.80;39.00
69595;DHT22;56800;52.142;5.364;2023-06-14T00:12:32;20.70;39.00
69595;DHT22;56800;52.142;5.364;2023-06-14T00:14:59;20.70;39.20
69595;DHT22;56800;52.142;5.364;2023-06-14T00:17:28;20.70;39.30
69595;DHT22;56800;52.142;5.364;2023-06-14T00:19:58;20.60;39.30
69595;DHT22;56800;52.142;5.364;2023-06-14T00:22:26;20.60;39.50
69595;DHT22;56800;52.142;5.364;2023-06-14T00:24:55;20.70;39.70
69595;DHT22;56800;52.142;5.364;2023-06-14T00:27:22;20.60;39.90
69595;DHT22;56800;52.142;5.364;2023-06-14T00:29:49;20.50;40.00
69595;DHT22;56800;52.142;5.364;2023-06-14T00:32:15;20.50;40.00
69595;DHT22;56800;52.142;5.364;2023-06-14T00:34:42;20.50;40.00
69595;DHT22;56800;52.142;5.364;2023-06-14T00:37:09;20.50;40.00
69595;DHT22;56800;52.142;5.364;2023-06-14T00:39:36;20.50;39.90
69595;DHT22;56800;52.142;5.364;2023-06-14T00:42:02;20.40;39.90
69595;DHT22;56800;52.142;5.364;2023-06-14T00:44:29;20.40;40.00
69595;DHT22;56800;52.142;5.364;2023-06-14T00:46:56;20.30;40.00
69595;DHT22;56800;52.142;5.364;2023-06-14T00:49:23;20.30;40.10
69595;DHT22;56800;52.142;5.364;2023-06-14T00:51:51;20.30;40.20
69595;DHT22;56800;52.142;5.364;2023-06-14T00:54:18;20.30;40.20
69595;DHT22;56800;52.142;5.364;2023-06-14T00:56:45;20.30;40.30
69595;DHT22;56800;52.142;5.364;2023-06-14T00:59:11;20.20;40.20
69595;DHT22;56800;52.142;5.364;2023-06-14T01:01:38;20.20;40.30
69595;DHT22;56800;52.142;5.364;2023-06-14T01:04:06;20.20;40.30
69595;DHT22;56800;52.142;5.364;2023-06-14T01:07:02;20.20;40.30
69595;DHT22;56800;52.142;5.364;2023-06-14T01:13:02;20.20;40.60
69595;DHT22;56800;52.142;5.364;2023-06-14T01:15:31;20.10;40.50
69595;DHT22;56800;52.142;5.364;2023-06-14T01:17:59;20.10;40.40
69595;DHT22;56800;52.142;5.364;2023-06-14T01:20:31;20.10;40.40
69595;DHT22;56800;52.142;5.364;2023-06-14T01:22:59;20.10;40.70
69595;DHT22;56800;52.142;5.364;2023-06-14T01:25:26;20.00;40.60
69595;DHT22;56800;52.142;5.364;2023-06-14T01:27:55;20.00;40.70
69595;DHT22;56800;52.142;5.364;2023-06-14T01:30:24;20.00;40.70
69595;DHT22;56800;52.142;5.364;2023-06-14T01:32:53;19.90;40.70
69595;DHT22;56800;52.142;5.364;2023-06-14T01:35:21;19.90;40.80
69595;DHT22;56800;52.142;5.364;2023-06-14T01:37:49;19.80;40.80
69595;DHT22;56800;52.142;5.364;2023-06-14T01:40:17;19.90;40.90
69595;DHT22;56800;52.142;5.364;2023-06-14T01:42:46;19.90;40.90
69595;DHT22;56800;52.142;5.364;2023-06-14T01:45:14;19.80;41.00
69595;DHT22;56800;52.142;5.364;2023-06-14T01:47:41;19.80;41.00
69595;DHT22;56800;52.142;5.364;2023-06-14T01:50:08;19.70;41.20
69595;DHT22;56800;52.142;5.364;2023-06-14T01:52:36;19.70;41.30
69595;DHT22;56800;52.142;5.364;2023-06-14T01:55:04;19.60;41.40
69595;DHT22;56800;52.142;5.364;2023-06-14T01:57:31;19.60;42.50
69595;DHT22;56800;52.142;5.364;2023-06-14T01:59:58;19.60;41.50
69595;DHT22;56800;52.142;5.364;2023-06-14T02:02:25;19.50;41.60
69595;DHT22;56800;52.142;5.364;2023-06-14T02:04:51;19.50;41.70
69595;DHT22;56800;52.142;5.364;2023-06-14T02:07:18;19.50;41.80
69595;DHT22;56800;52.142;5.364;2023-06-14T02:09:45;19.40;41.90
69595;DHT22;56800;52.142;5.364;2023-06-14T02:12:12;19.40;42.00
69595;DHT22;56800;52.142;5.364;2023-06-14T02:14:39;19.30;42.10
69595;DHT22;56800;52.142;5.364;2023-06-14T02:17:05;19.30;42.20
69595;DHT22;56800;52.142;5.364;2023-06-14T02:19:33;19.30;42.30
69595;DHT22;56800;52.142;5.364;2023-06-14T02:22:00;19.30;42.50
69595;DHT22;56800;52.142;5.364;2023-06-14T02:24:26;19.20;42.60
69595;DHT22;56800;52.142;5.364;2023-06-14T02:26:53;19.10;42.60
69595;DHT22;56800;52.142;5.364;2023-06-14T02:29:20;19.10;42.60
69595;DHT22;56800;52.142;5.364;2023-06-14T02:31:47;19.00;42.60
69595;DHT22;56800;52.142;5.364;2023-06-14T02:34:15;19.00;42.80
69595;DHT22;56800;52.142;5.364;2023-06-14T02:36:44;19.00;43.00
69595;DHT22;56800;52.142;5.364;2023-06-14T02:39:11;19.00;43.10
69595;DHT22;56800;52.142;5.364;2023-06-14T02:41:38;18.90;43.10
69595;DHT22;56800;52.142;5.364;2023-06-14T02:44:05;18.90;43.30
69595;DHT22;56800;52.142;5.364;2023-06-14T02:46:32;18.90;43.40
69595;DHT22;56800;52.142;5.364;2023-06-14T02:48:59;18.80;43.40
69595;DHT22;56800;52.142;5.364;2023-06-14T02:51:26;18.70;43.50
69595;DHT22;56800;52.142;5.364;2023-06-14T02:53:53;18.70;43.60
69595;DHT22;56800;52.142;5.364;2023-06-14T02:56:20;18.70;43.70
69595;DHT22;56800;52.142;5.364;2023-06-14T02:58:49;18.60;43.70
69595;DHT22;56800;52.142;5.364;2023-06-14T03:01:16;18.60;43.90
69595;DHT22;56800;52.142;5.364;2023-06-14T03:03:43;18.60;44.00
69595;DHT22;56800;52.142;5.364;2023-06-14T03:06:10;18.60;44.00
69595;DHT22;56800;52.142;5.364;2023-06-14T03:08:40;18.50;44.00
69595;DHT22;56800;52.142;5.364;2023-06-14T03:11:08;18.50;44.20
69595;DHT22;56800;52.142;5.364;2023-06-14T03:13:37;18.50;44.20
69595;DHT22;56800;52.142;5.364;2023-06-14T03:16:05;18.50;44.20
69595;DHT22;56800;52.142;5.364;2023-06-14T03:18:33;18.40;44.30
69595;DHT22;56800;52.142;5.364;2023-06-14T03:21:02;18.40;44.40
69595;DHT22;56800;52.142;5.364;2023-06-14T03:23:30;18.40;44.40
69595;DHT22;56800;52.142;5.364;2023-06-14T03:25:57;18.40;44.40
69595;DHT22;56800;52.142;5.364;2023-06-14T03:28:24;18.30;44.50
69595;DHT22;56800;52.142;5.364;2023-06-14T03:30:52;18.30;44.60
69595;DHT22;56800;52.142;5.364;2023-06-14T03:33:19;18.20;44.50
69595;DHT22;56800;52.142;5.364;2023-06-14T03:35:45;18.30;44.60
69595;DHT22;56800;52.142;5.364;2023-06-14T03:38:12;18.30;44.70
69595;DHT22;56800;52.142;5.364;2023-06-14T03:40:39;18.30;44.80
69595;DHT22;56800;52.142;5.364;2023-06-14T03:43:06;18.20;44.70
69595;DHT22;56800;52.142;5.364;2023-06-14T03:45:32;18.20;44.70
69595;DHT22;56800;52.142;5.364;2023-06-14T03:47:59;18.20;44.70
69595;DHT22;56800;52.142;5.364;2023-06-14T03:50:27;18.10;44.80
69595;DHT22;56800;52.142;5.364;2023-06-14T03:52:54;18.10;44.90
69595;DHT22;56800;52.142;5.364;2023-06-14T03:55:21;18.10;45.10
69595;DHT22;56800;52.142;5.364;2023-06-14T03:58:11;18.10;45.20
69595;DHT22;56800;52.142;5.364;2023-06-14T04:00:39;18.10;45.20
69595;DHT22;56800;52.142;5.364;2023-06-14T04:03:06;18.10;45.40
69595;DHT22;56800;52.142;5.364;2023-06-14T04:05:35;18.00;45.40
69595;DHT22;56800;52.142;5.364;2023-06-14T04:08:03;18.00;45.50
69595;DHT22;56800;52.142;5.364;2023-06-14T04:10:35;18.00;45.60
69595;DHT22;56800;52.142;5.364;2023-06-14T04:13:02;18.00;45.80
69595;DHT22;56800;52.142;5.364;2023-06-14T04:15:28;17.90;45.80
69595;DHT22;56800;52.142;5.364;2023-06-14T04:17:55;18.00;46.00
69595;DHT22;56800;52.142;5.364;2023-06-14T04:20:24;17.90;46.00
69595;DHT22;56800;52.142;5.364;2023-06-14T04:22:51;17.90;46.00
69595;DHT22;56800;52.142;5.364;2023-06-14T04:25:19;17.90;46.20
69595;DHT22;56800;52.142;5.364;2023-06-14T04:27:50;17.90;46.30
69595;DHT22;56800;52.142;5.364;2023-06-14T04:30:17;17.90;46.40
69595;DHT22;56800;52.142;5.364;2023-06-14T04:32:43;17.90;46.40
69595;DHT22;56800;52.142;5.364;2023-06-14T04:35:10;17.90;46.60
69595;DHT22;56800;52.142;5.364;2023-06-14T04:37:38;17.90;46.70
69595;DHT22;56800;52.142;5.364;2023-06-14T04:40:08;17.90;46.70
69595;DHT22;56800;52.142;5.364;2023-06-14T04:42:38;17.90;46.60
69595;DHT22;56800;52.142;5.364;2023-06-14T04:45:07;17.90;46.70
69595;DHT22;56800;52.142;5.364;2023-06-14T04:47:35;17.90;46.80
69595;DHT22;56800;52.142;5.364;2023-06-14T04:50:04;17.90;46.80
69595;DHT22;56800;52.142;5.364;2023-06-14T04:52:31;18.00;46.90
69595;DHT22;56800;52.142;5.364;2023-06-14T04:54:58;17.90;47.00
69595;DHT22;56800;52.142;5.364;2023-06-14T04:57:25;18.00;47.00
69595;DHT22;56800;52.142;5.364;2023-06-14T04:59:52;17.90;47.10
69595;DHT22;56800;52.142;5.364;2023-06-14T05:02:25;18.00;47.30
69595;DHT22;56800;52.142;5.364;2023-06-14T05:04:53;17.90;47.40
69595;DHT22;56800;52.142;5.364;2023-06-14T05:07:20;18.00;47.50
69595;DHT22;56800;52.142;5.364;2023-06-14T05:09:46;18.00;47.50
69595;DHT22;56800;52.142;5.364;2023-06-14T05:12:13;18.00;47.70
69595;DHT22;56800;52.142;5.364;2023-06-14T05:14:45;18.00;47.70
69595;DHT22;56800;52.142;5.364;2023-06-14T05:17:12;18.00;47.70
69595;DHT22;56800;52.142;5.364;2023-06-14T05:19:38;18.00;47.80
69595;DHT22;56800;52.142;5.364;2023-06-14T05:22:06;18.00;47.90
69595;DHT22;56800;52.142;5.364;2023-06-14T05:24:33;18.10;48.00
69595;DHT22;56800;52.142;5.364;2023-06-14T05:27:00;18.10;48.00
69595;DHT22;56800;52.142;5.364;2023-06-14T05:29:27;18.10;48.10
69595;DHT22;56800;52.142;5.364;2023-06-14T05:31:56;18.10;48.10
69595;DHT22;56800;52.142;5.364;2023-06-14T05:34:23;18.20;48.10
69595;DHT22;56800;52.142;5.364;2023-06-14T05:36:50;18.20;48.10
69595;DHT22;56800;52.142;5.364;2023-06-14T05:39:17;18.20;47.90
69595;DHT22;56800;52.142;5.364;2023-06-14T05:41:43;18.30;47.70
69595;DHT22;56800;52.142;5.364;2023-06-14T05:44:10;18.40;47.70
69595;DHT22;56800;52.142;5.364;2023-06-14T05:46:37;18.40;47.90
69595;DHT22;56800;52.142;5.364;2023-06-14T05:49:06;18.40;47.90
69595;DHT22;56800;52.142;5.364;2023-06-14T05:51:33;18.40;47.70
69595;DHT22;56800;52.142;5.364;2023-06-14T05:54:00;18.50;47.60
69595;DHT22;56800;52.142;5.364;2023-06-14T05:56:27;18.50;47.60
69595;DHT22;56800;52.142;5.364;2023-06-14T05:58:54;18.60;47.90
69595;DHT22;56800;52.142;5.364;2023-06-14T06:01:21;18.60;49.00
69595;DHT22;56800;52.142;5.364;2023-06-14T06:03:48;18.70;47.90
69595;DHT22;56800;52.142;5.364;2023-06-14T06:06:15;18.70;47.90
69595;DHT22;56800;52.142;5.364;2023-06-14T06:08:42;18.80;47.90
69595;DHT22;56800;52.142;5.364;2023-06-14T06:11:10;18.80;47.80
69595;DHT22;56800;52.142;5.364;2023-06-14T06:13:38;18.90;47.70
69595;DHT22;56800;52.142;5.364;2023-06-14T06:16:06;18.90;47.40
69595;DHT22;56800;52.142;5.364;2023-06-14T06:18:32;19.00;47.50
69595;DHT22;56800;52.142;5.364;2023-06-14T06:20:59;19.00;47.30
69595;DHT22;56800;52.142;5.364;2023-06-14T06:23:26;19.10;47.00
69595;DHT22;56800;52.142;5.364;2023-06-14T06:25:53;19.10;46.70
69595;DHT22;56800;52.142;5.364;2023-06-14T06:28:20;19.20;46.70
69595;DHT22;56800;52.142;5.364;2023-06-14T06:30:46;19.30;46.70
69595;DHT22;56800;52.142;5.364;2023-06-14T06:33:13;19.40;46.70
69595;DHT22;56800;52.142;5.364;2023-06-14T06:35:40;19.40;46.50
69595;DHT22;56800;52.142;5.364;2023-06-14T06:38:07;19.50;46.30
69595;DHT22;56800;52.142;5.364;2023-06-14T06:40:35;19.60;46.10
69595;DHT22;56800;52.142;5.364;2023-06-14T06:43:02;19.70;45.90
69595;DHT22;56800;52.142;5.364;2023-06-14T06:45:29;19.70;45.50
69595;DHT22;56800;52.142;5.364;2023-06-14T06:47:57;19.80;45.40
69595;DHT22;56800;52.142;5.364;2023-06-14T06:50:24;19.90;45.20
69595;DHT22;56800;52.142;5.364;2023-06-14T06:52:51;20.00;45.00
69595;DHT22;56800;52.142;5.364;2023-06-14T06:55:18;20.10;46.00
69595;DHT22;56800;52.142;5.364;2023-06-14T06:57:45;20.10;44.80
69595;DHT22;56800;52.142;5.364;2023-06-14T07:00:12;20.20;44.40
69595;DHT22;56800;52.142;5.364;2023-06-14T07:02:40;20.30;44.40
69595;DHT22;56800;52.142;5.364;2023-06-14T07:05:07;20.40;44.50
69595;DHT22;56800;52.142;5.364;2023-06-14T07:07:34;20.40;44.40
69595;DHT22;56800;52.142;5.364;2023-06-14T07:10:02;20.50;44.50
69595;DHT22;56800;52.142;5.364;2023-06-14T07:12:31;20.60;45.00
69595;DHT22;56800;52.142;5.364;2023-06-14T07:15:01;20.70;44.20
69595;DHT22;56800;52.142;5.364;2023-06-14T07:17:27;20.80;43.90
69595;DHT22;56800;52.142;5.364;2023-06-14T07:19:54;20.90;43.80
69595;DHT22;56800;52.142;5.364;2023-06-14T07:22:21;21.00;43.80
69595;DHT22;56800;52.142;5.364;2023-06-14T07:24:48;21.10;43.60
69595;DHT22;56800;52.142;5.364;2023-06-14T07:27:15;21.20;43.10
69595;DHT22;56800;52.142;5.364;2023-06-14T07:29:41;21.30;42.90
69595;DHT22;56800;52.142;5.364;2023-06-14T07:32:08;21.30;42.70
69595;DHT22;56800;52.142;5.364;2023-06-14T07:34:35;21.40;42.40
69595;DHT22;56800;52.142;5.364;2023-06-14T07:37:01;21.50;42.00
69595;DHT22;56800;52.142;5.364;2023-06-14T07:39:28;21.60;42.00
69595;DHT22;56800;52.142;5.364;2023-06-14T07:41:55;21.60;41.90
69595;DHT22;56800;52.142;5.364;2023-06-14T07:44:22;21.70;41.80
69595;DHT22;56800;52.142;5.364;2023-06-14T07:46:48;21.80;41.40
69595;DHT22;56800;52.142;5.364;2023-06-14T07:49:18;21.90;41.20
69595;DHT22;56800;52.142;5.364;2023-06-14T07:51:45;22.00;40.70
69595;DHT22;56800;52.142;5.364;2023-06-14T07:54:13;22.10;40.50
69595;DHT22;56800;52.142;5.364;2023-06-14T07:56:40;22.20;40.50
69595;DHT22;56800;52.142;5.364;2023-06-14T07:59:10;22.20;40.10
69595;DHT22;56800;52.142;5.364;2023-06-14T08:01:36;22.40;40.00
69595;DHT22;56800;52.142;5.364;2023-06-14T08:04:03;22.40;40.60
69595;DHT22;56800;52.142;5.364;2023-06-14T08:06:30;22.50;39.10
69595;DHT22;56800;52.142;5.364;2023-06-14T08:08:57;22.60;38.90
69595;DHT22;56800;52.142;5.364;2023-06-14T08:11:24;22.70;39.00
69595;DHT22;56800;52.142;5.364;2023-06-14T08:13:51;22.80;39.10
69595;DHT22;56800;52.142;5.364;2023-06-14T08:16:17;22.90;38.80
69595;DHT22;56800;52.142;5.364;2023-06-14T08:18:44;23.00;38.20
69595;DHT22;56800;52.142;5.364;2023-06-14T08:21:11;23.00;37.70
69595;DHT22;56800;52.142;5.364;2023-06-14T08:23:40;23.10;37.40
69595;DHT22;56800;52.142;5.364;2023-06-14T08:26:09;23.20;37.40
69595;DHT22;56800;52.142;5.364;2023-06-14T08:28:36;23.20;37.30
69595;DHT22;56800;52.142;5.364;2023-06-14T08:31:03;23.40;37.20
69595;DHT22;56800;52.142;5.364;2023-06-14T08:33:30;23.40;36.80
69595;DHT22;56800;52.142;5.364;2023-06-14T08:36:00;23.50;36.40
69595;DHT22;56800;52.142;5.364;2023-06-14T08:38:27;23.60;36.20
69595;DHT22;56800;52.142;5.364;2023-06-14T08:40:57;23.60;36.00
69595;DHT22;56800;52.142;5.364;2023-06-14T08:43:24;23.70;35.70
69595;DHT22;56800;52.142;5.364;2023-06-14T08:45:57;23.90;35.30
69595;DHT22;56800;52.142;5.364;2023-06-14T08:48:26;23.90;34.80
69595;DHT22;56800;52.142;5.364;2023-06-14T08:50:55;24.00;34.30
69595;DHT22;56800;52.142;5.364;2023-06-14T08:53:30;24.10;34.20
69595;DHT22;56800;52.142;5.364;2023-06-14T08:56:01;24.30;34.60
69595;DHT22;56800;52.142;5.364;2023-06-14T08:58:28;24.30;33.90
69595;DHT22;56800;52.142;5.364;2023-06-14T09:01:02;24.40;33.50
69595;DHT22;56800;52.142;5.364;2023-06-14T09:03:28;24.50;33.30
69595;DHT22;56800;52.142;5.364;2023-06-14T09:05:57;24.50;33.00
69595;DHT22;56800;52.142;5.364;2023-06-14T09:08:28;24.60;32.40
69595;DHT22;56800;52.142;5.364;2023-06-14T09:10:58;24.60;32.00
69595;DHT22;56800;52.142;5.364;2023-06-14T09:13:26;24.70;31.90
69595;DHT22;56800;52.142;5.364;2023-06-14T09:15:57;24.70;31.90
69595;DHT22;56800;52.142;5.364;2023-06-14T09:18:36;24.80;31.90
69595;DHT22;56800;52.142;5.364;2023-06-14T09:21:06;24.90;31.70
69595;DHT22;56800;52.142;5.364;2023-06-14T09:23:40;25.00;31.60
69595;DHT22;56800;52.142;5.364;2023-06-14T09:26:08;25.00;31.30
69595;DHT22;56800;52.142;5.364;2023-06-14T09:28:35;25.10;31.20
69595;DHT22;56800;52.142;5.364;2023-06-14T09:31:02;25.20;30.80
69595;DHT22;56800;52.142;5.364;2023-06-14T09:33:30;25.30;30.60
69595;DHT22;56800;52.142;5.364;2023-06-14T09:35:57;25.30;30.10
69595;DHT22;56800;52.142;5.364;2023-06-14T09:38:24;25.40;30.00
69595;DHT22;56800;52.142;5.364;2023-06-14T09:40:51;25.50;30.00
69595;DHT22;56800;52.142;5.364;2023-06-14T09:43:19;25.50;30.00
69595;DHT22;56800;52.142;5.364;2023-06-14T09:45:48;25.60;29.80
69595;DHT22;56800;52.142;5.364;2023-06-14T09:48:15;25.70;29.50
69595;DHT22;56800;52.142;5.364;2023-06-14T09:50:45;25.70;29.20
69595;DHT22;56800;52.142;5.364;2023-06-14T09:53:13;25.90;29.10
69595;DHT22;56800;52.142;5.364;2023-06-14T09:55:41;26.00;29.20
69595;DHT22;56800;52.142;5.364;2023-06-14T09:58:10;26.00;29.00
69595;DHT22;56800;52.142;5.364;2023-06-14T10:00:39;26.10;29.00
69595;DHT22;56800;52.142;5.364;2023-06-14T10:05:36;26.30;28.80
69595;DHT22;56800;52.142;5.364;2023-06-14T10:08:07;26.40;28.90
69595;DHT22;56800;52.142;5.364;2023-06-14T10:10:34;26.50;29.00
69595;DHT22;56800;52.142;5.364;2023-06-14T10:13:01;26.60;28.80
69595;DHT22;56800;52.142;5.364;2023-06-14T10:15:35;26.60;28.80
69595;DHT22;56800;52.142;5.364;2023-06-14T10:20:50;26.80;28.20
69595;DHT22;56800;52.142;5.364;2023-06-14T10:23:23;26.90;28.10
69595;DHT22;56800;52.142;5.364;2023-06-14T10:25:55;27.10;27.80
69595;DHT22;56800;52.142;5.364;2023-06-14T10:28:23;27.20;27.80
69595;DHT22;56800;52.142;5.364;2023-06-14T10:31:10;27.30;27.80
69595;DHT22;56800;52.142;5.364;2023-06-14T10:33:49;27.40;27.90
69595;DHT22;56800;52.142;5.364;2023-06-14T10:38:58;27.70;27.80
69595;DHT22;56800;52.142;5.364;2023-06-14T10:41:28;27.70;27.70
69595;DHT22;56800;52.142;5.364;2023-06-14T10:46:52;28.00;27.70
69595;DHT22;56800;52.142;5.364;2023-06-14T10:49:19;28.10;27.40
69595;DHT22;56800;52.142;5.364;2023-06-14T10:51:50;28.20;27.20
69595;DHT22;56800;52.142;5.364;2023-06-14T10:54:20;28.20;26.90
69595;DHT22;56800;52.142;5.364;2023-06-14T10:56:51;28.20;26.90
69595;DHT22;56800;52.142;5.364;2023-06-14T10:59:19;28.20;26.70
69595;DHT22;56800;52.142;5.364;2023-06-14T11:04:50;28.30;26.80
69595;DHT22;56800;52.142;5.364;2023-06-14T11:12:46;28.40;26.80
69595;DHT22;56800;52.142;5.364;2023-06-14T11:15:14;28.40;26.80
69595;DHT22;56800;52.142;5.364;2023-06-14T11:17:51;28.50;26.50
69595;DHT22;56800;52.142;5.364;2023-06-14T11:20:20;28.50;26.30
69595;DHT22;56800;52.142;5.364;2023-06-14T11:22:49;28.60;26.30
69595;DHT22;56800;52.142;5.364;2023-06-14T11:25:16;28.50;26.30
69595;DHT22;56800;52.142;5.364;2023-06-14T11:27:43;28.50;26.30
69595;DHT22;56800;52.142;5.364;2023-06-14T11:30:11;28.50;26.40
69595;DHT22;56800;52.142;5.364;2023-06-14T11:32:38;28.50;26.50
69595;DHT22;56800;52.142;5.364;2023-06-14T11:35:05;28.50;26.40
69595;DHT22;56800;52.142;5.364;2023-06-14T11:37:32;28.40;26.40
69595;DHT22;56800;52.142;5.364;2023-06-14T11:40:00;28.50;26.30
69595;DHT22;56800;52.142;5.364;2023-06-14T11:42:27;28.40;26.30
69595;DHT22;56800;52.142;5.364;2023-06-14T11:44:55;28.40;26.30
69595;DHT22;56800;52.142;5.364;2023-06-14T11:47:35;28.40;26.10
69595;DHT22;56800;52.142;5.364;2023-06-14T11:50:07;28.30;26.00
69595;DHT22;56800;52.142;5.364;2023-06-14T11:52:36;28.30;26.10
69595;DHT22;56800;52.142;5.364;2023-06-14T11:55:03;28.30;26.30
69595;DHT22;56800;52.142;5.364;2023-06-14T11:57:36;28.30;26.40
69595;DHT22;56800;52.142;5.364;2023-06-14T12:00:08;28.30;26.30
69595;DHT22;56800;52.142;5.364;2023-06-14T12:02:39;28.30;26.30
69595;DHT22;56800;52.142;5.364;2023-06-14T12:05:08;28.40;26.40
69595;DHT22;56800;52.142;5.364;2023-06-14T12:07:37;28.40;26.30
69595;DHT22;56800;52.142;5.364;2023-06-14T12:10:04;28.50;26.90
69595;DHT22;56800;52.142;5.364;2023-06-14T12:12:39;28.40;26.10
69595;DHT22;56800;52.142;5.364;2023-06-14T12:15:09;28.40;26.20
69595;DHT22;56800;52.142;5.364;2023-06-14T12:17:39;28.40;26.00
69595;DHT22;56800;52.142;5.364;2023-06-14T12:20:09;28.40;26.20
69595;DHT22;56800;52.142;5.364;2023-06-14T12:22:53;28.40;26.10
69595;DHT22;56800;52.142;5.364;2023-06-14T12:25:24;28.40;26.30
69595;DHT22;56800;52.142;5.364;2023-06-14T12:27:54;28.40;26.10
69595;DHT22;56800;52.142;5.364;2023-06-14T12:30:22;28.40;26.20
69595;DHT22;56800;52.142;5.364;2023-06-14T12:32:48;28.40;26.20
69595;DHT22;56800;52.142;5.364;2023-06-14T12:35:15;28.30;26.30
69595;DHT22;56800;52.142;5.364;2023-06-14T12:37:42;28.30;26.30
69595;DHT22;56800;52.142;5.364;2023-06-14T12:40:09;28.20;26.40
69595;DHT22;56800;52.142;5.364;2023-06-14T12:42:38;28.20;26.70
69595;DHT22;56800;52.142;5.364;2023-06-14T12:45:05;28.20;26.90
69595;DHT22;56800;52.142;5.364;2023-06-14T12:47:32;28.20;26.70
69595;DHT22;56800;52.142;5.364;2023-06-14T12:49:58;28.30;26.80
69595;DHT22;56800;52.142;5.364;2023-06-14T12:52:25;28.30;27.00
69595;DHT22;56800;52.142;5.364;2023-06-14T12:54:52;28.40;27.20
69595;DHT22;56800;52.142;5.364;2023-06-14T12:57:18;28.50;27.10
69595;DHT22;56800;52.142;5.364;2023-06-14T12:59:45;28.60;27.00
69595;DHT22;56800;52.142;5.364;2023-06-14T13:02:17;28.70;26.90
69595;DHT22;56800;52.142;5.364;2023-06-14T13:04:44;28.70;26.40
69595;DHT22;56800;52.142;5.364;2023-06-14T13:07:11;28.80;26.10
69595;DHT22;56800;52.142;5.364;2023-06-14T13:09:38;28.80;26.10
69595;DHT22;56800;52.142;5.364;2023-06-14T13:12:04;28.90;26.10
69595;DHT22;56800;52.142;5.364;2023-06-14T13:14:32;28.90;25.90
69595;DHT22;56800;52.142;5.364;2023-06-14T13:16:58;29.00;25.60
69595;DHT22;56800;52.142;5.364;2023-06-14T13:19:25;29.10;25.20
69595;DHT22;56800;52.142;5.364;2023-06-14T13:21:52;29.20;25.20
69595;DHT22;56800;52.142;5.364;2023-06-14T13:24:19;29.30;24.90
69595;DHT22;56800;52.142;5.364;2023-06-14T13:26:45;29.50;24.90
69595;DHT22;56800;52.142;5.364;2023-06-14T13:29:12;29.60;25.00
69595;DHT22;56800;52.142;5.364;2023-06-14T13:31:39;29.80;25.00
69595;DHT22;56800;52.142;5.364;2023-06-14T13:34:06;30.00;24.90
69595;DHT22;56800;52.142;5.364;2023-06-14T13:36:33;30.10;24.60
69595;DHT22;56800;52.142;5.364;2023-06-14T13:39:00;30.20;24.70
69595;DHT22;56800;52.142;5.364;2023-06-14T13:41:28;30.40;24.80
69595;DHT22;56800;52.142;5.364;2023-06-14T13:44:01;30.60;24.40
69595;DHT22;56800;52.142;5.364;2023-06-14T13:46:30;30.70;24.30
69595;DHT22;56800;52.142;5.364;2023-06-14T13:48:57;30.80;24.20
69595;DHT22;56800;52.142;5.364;2023-06-14T13:51:24;30.90;24.20
69595;DHT22;56800;52.142;5.364;2023-06-14T13:53:53;31.10;24.30
69595;DHT22;56800;52.142;5.364;2023-06-14T13:56:21;31.10;24.00
69595;DHT22;56800;52.142;5.364;2023-06-14T13:58:49;31.30;24.20
69595;DHT22;56800;52.142;5.364;2023-06-14T14:01:16;31.40;24.20
69595;DHT22;56800;52.142;5.364;2023-06-14T14:03:45;31.40;24.00
69595;DHT22;56800;52.142;5.364;2023-06-14T14:06:12;31.50;24.00
69595;DHT22;56800;52.142;5.364;2023-06-14T14:08:39;31.60;23.90
69595;DHT22;56800;52.142;5.364;2023-06-14T14:11:06;31.70;23.80
69595;DHT22;56800;52.142;5.364;2023-06-14T14:13:34;31.70;23.50
69595;DHT22;56800;52.142;5.364;2023-06-14T14:16:03;31.70;23.40
69595;DHT22;56800;52.142;5.364;2023-06-14T14:18:30;31.80;23.50
69595;DHT22;56800;52.142;5.364;2023-06-14T14:20:58;31.80;23.30
69595;DHT22;56800;52.142;5.364;2023-06-14T14:23:24;31.80;23.40
69595;DHT22;56800;52.142;5.364;2023-06-14T14:25:51;31.80;23.40
69595;DHT22;56800;52.142;5.364;2023-06-14T14:28:18;31.70;23.40
69595;DHT22;56800;52.142;5.364;2023-06-14T14:30:47;31.60;23.30
69595;DHT22;56800;52.142;5.364;2023-06-14T14:33:14;31.70;23.50
69595;DHT22;56800;52.142;5.364;2023-06-14T14:35:44;31.70;23.40
69595;DHT22;56800;52.142;5.364;2023-06-14T14:38:14;31.70;23.30
69595;DHT22;56800;52.142;5.364;2023-06-14T14:40:44;31.60;23.20
69595;DHT22;56800;52.142;5.364;2023-06-14T14:43:11;31.50;23.10
69595;DHT22;56800;52.142;5.364;2023-06-14T14:45:38;31.50;23.00
69595;DHT22;56800;52.142;5.364;2023-06-14T14:48:05;31.40;23.20
69595;DHT22;56800;52.142;5.364;2023-06-14T14:50:33;31.30;23.10
69595;DHT22;56800;52.142;5.364;2023-06-14T14:52:59;31.30;23.10
69595;DHT22;56800;52.142;5.364;2023-06-14T14:55:26;31.30;23.20
69595;DHT22;56800;52.142;5.364;2023-06-14T14:57:53;31.20;23.00
69595;DHT22;56800;52.142;5.364;2023-06-14T15:00:20;31.20;23.10
69595;DHT22;56800;52.142;5.364;2023-06-14T15:02:47;31.10;23.00
69595;DHT22;56800;52.142;5.364;2023-06-14T15:05:14;31.10;23.00
69595;DHT22;56800;52.142;5.364;2023-06-14T15:07:40;31.10;23.20
69595;DHT22;56800;52.142;5.364;2023-06-14T15:10:08;31.10;23.30
69595;DHT22;56800;52.142;5.364;2023-06-14T15:12:35;31.00;22.90
69595;DHT22;56800;52.142;5.364;2023-06-14T15:15:02;30.90;22.90
69595;DHT22;56800;52.142;5.364;2023-06-14T15:17:29;30.80;23.00
69595;DHT22;56800;52.142;5.364;2023-06-14T15:19:56;30.80;23.20
69595;DHT22;56800;52.142;5.364;2023-06-14T15:22:23;30.80;23.50
69595;DHT22;56800;52.142;5.364;2023-06-14T15:24:49;30.70;24.20
69595;DHT22;56800;52.142;5.364;2023-06-14T15:27:16;30.60;23.20
69595;DHT22;56800;52.142;5.364;2023-06-14T15:29:44;30.60;23.60
69595;DHT22;56800;52.142;5.364;2023-06-14T15:32:13;30.60;23.60
69595;DHT22;56800;52.142;5.364;2023-06-14T15:34:40;30.60;23.70
69595;DHT22;56800;52.142;5.364;2023-06-14T15:37:07;30.60;23.70
69595;DHT22;56800;52.142;5.364;2023-06-14T15:39:34;30.60;24.60
69595;DHT22;56800;52.142;5.364;2023-06-14T15:42:02;30.60;23.50
69595;DHT22;56800;52.142;5.364;2023-06-14T15:44:28;30.50;23.60
69595;DHT22;56800;52.142;5.364;2023-06-14T15:46:55;30.40;23.80
69595;DHT22;56800;52.142;5.364;2023-06-14T15:49:22;30.40;23.90
69595;DHT22;56800;52.142;5.364;2023-06-14T15:51:49;30.40;23.90
69595;DHT22;56800;52.142;5.364;2023-06-14T15:54:15;30.40;23.30
69595;DHT22;56800;52.142;5.364;2023-06-14T15:56:42;30.30;23.20